sensor_id;sensor_type;location;lat;lon;timestamp;P1;durP1;ratioP1;P2;durP2;ratioP2
75285;SDS011;63879;46.064;14.532;2022-10-16T07:00:55;45.40;;;21.95;;
75285;SDS011;63879;46.064;14.532;2022-10-16T07:03:22;49.63;;;23.35;;
75285;SDS011;63879;46.064;14.532;2022-10-16T07:05:47;44.83;;;21.70;;
75285;SDS011;63879;46.064;14.532;2022-10-16T07:08:12;51.47;;;24.10;;
75285;SDS011;63879;46.064;14.532;2022-10-16T07:10:37;43.63;;;23.53;;
75285;SDS011;63879;46.064;14.532;2022-10-16T07:13:03;45.60;;;23.70;;
75285;SDS011;63879;46.064;14.532;2022-10-16T07:15:28;46.03;;;23.70;;
75285;SDS011;63879;46.064;14.532;2022-10-16T07:17:54;43.22;;;22.27;;
75285;SDS011;63879;46.064;14.532;2022-10-16T07:20:19;52.70;;;27.15;;
75285;SDS011;63879;46.064;14.532;2022-10-16T07:22:45;47.22;;;24.60;;
75285;SDS011;63879;46.064;14.532;2022-10-16T07:25:11;47.55;;;25.25;;
75285;SDS011;63879;46.064;14.532;2022-10-16T07:27:36;48.05;;;23.45;;
75285;SDS011;63879;46.064;14.532;2022-10-16T07:30:03;46.88;;;23.40;;
75285;SDS011;63879;46.064;14.532;2022-10-16T07:32:29;48.05;;;23.88;;
75285;SDS011;63879;46.064;14.532;2022-10-16T07:34:54;43.17;;;23.17;;
75285;SDS011;63879;46.064;14.532;2022-10-16T07:37:20;53.65;;;25.02;;
75285;SDS011;63879;46.064;14.532;2022-10-16T07:39:46;46.88;;;24.83;;
75285;SDS011;63879;46.064;14.532;2022-10-16T07:42:11;46.55;;;22.95;;
75285;SDS011;63879;46.064;14.532;2022-10-16T07:44:37;38.80;;;22.25;;
75285;SDS011;63879;46.064;14.532;2022-10-16T07:47:02;44.60;;;23.47;;
75285;SDS011;63879;46.064;14.532;2022-10-16T07:49:27;45.00;;;24.33;;
75285;SDS011;63879;46.064;14.532;2022-10-16T07:51:53;41.30;;;21.60;;
75285;SDS011;63879;46.064;14.532;2022-10-16T07:54:18;44.27;;;23.77;;
75285;SDS011;63879;46.064;14.532;2022-10-16T07:56:43;41.90;;;23.37;;
75285;SDS011;63879;46.064;14.532;2022-10-16T07:59:09;41.53;;;22.07;;
75285;SDS011;63879;46.064;14.532;2022-10-16T08:01:34;48.70;;;25.83;;
75285;SDS011;63879;46.064;14.532;2022-10-16T08:03:59;45.70;;;26.77;;
75285;SDS011;63879;46.064;14.532;2022-10-16T08:06:25;45.10;;;23.57;;
75285;SDS011;63879;46.064;14.532;2022-10-16T08:08:50;45.83;;;23.10;;
75285;SDS011;63879;46.064;14.532;2022-10-16T08:11:16;43.25;;;22.88;;
75285;SDS011;63879;46.064;14.532;2022-10-16T08:13:41;43.08;;;23.88;;
75285;SDS011;63879;46.064;14.532;2022-10-16T08:16:07;40.53;;;23.15;;
75285;SDS011;63879;46.064;14.532;2022-10-16T08:18:36;42.65;;;23.83;;
75285;SDS011;63879;46.064;14.532;2022-10-16T08:21:05;44.45;;;24.38;;
75285;SDS011;63879;46.064;14.532;2022-10-16T08:23:30;44.78;;;24.48;;
75285;SDS011;63879;46.064;14.532;2022-10-16T08:25:56;44.92;;;25.70;;
75285;SDS011;63879;46.064;14.532;2022-10-16T08:28:27;41.03;;;23.05;;
75285;SDS011;63879;46.064;14.532;2022-10-16T08:30:53;45.33;;;23.42;;
75285;SDS011;63879;46.064;14.532;2022-10-16T08:33:18;47.33;;;25.13;;
75285;SDS011;63879;46.064;14.532;2022-10-16T08:35:50;47.15;;;23.92;;
75285;SDS011;63879;46.064;14.532;2022-10-16T08:38:19;57.28;;;27.58;;
75285;SDS011;63879;46.064;14.532;2022-10-16T08:40:45;49.85;;;26.10;;
75285;SDS011;63879;46.064;14.532;2022-10-16T08:48:47;60.00;;;29.02;;
75285;SDS011;63879;46.064;14.532;2022-10-16T08:51:18;57.15;;;29.15;;
75285;SDS011;63879;46.064;14.532;2022-10-16T08:53:53;62.05;;;29.15;;
75285;SDS011;63879;46.064;14.532;2022-10-16T08:56:20;53.97;;;26.75;;
75285;SDS011;63879;46.064;14.532;2022-10-16T08:58:46;54.70;;;26.77;;
75285;SDS011;63879;46.064;14.532;2022-10-16T09:01:13;60.03;;;27.42;;
75285;SDS011;63879;46.064;14.532;2022-10-16T09:03:44;53.40;;;28.48;;
75285;SDS011;63879;46.064;14.532;2022-10-16T09:09:17;53.72;;;27.77;;
75285;SDS011;63879;46.064;14.532;2022-10-16T09:12:13;56.50;;;27.83;;
75285;SDS011;63879;46.064;14.532;2022-10-16T09:14:55;58.97;;;28.83;;
75285;SDS011;63879;46.064;14.532;2022-10-16T09:22:47;56.13;;;27.33;;
75285;SDS011;63879;46.064;14.532;2022-10-16T09:25:17;57.33;;;27.90;;
75285;SDS011;63879;46.064;14.532;2022-10-16T09:27:46;52.35;;;29.02;;
75285;SDS011;63879;46.064;14.532;2022-10-16T09:30:13;54.50;;;28.20;;
75285;SDS011;63879;46.064;14.532;2022-10-16T09:32:41;50.45;;;27.27;;
75285;SDS011;63879;46.064;14.532;2022-10-16T09:35:11;53.97;;;27.88;;
75285;SDS011;63879;46.064;14.532;2022-10-16T09:37:39;54.22;;;29.02;;
75285;SDS011;63879;46.064;14.532;2022-10-16T09:40:05;48.35;;;25.17;;
75285;SDS011;63879;46.064;14.532;2022-10-16T09:42:31;46.55;;;25.58;;
75285;SDS011;63879;46.064;14.532;2022-10-16T09:44:59;46.80;;;24.90;;
75285;SDS011;63879;46.064;14.532;2022-10-16T09:47:25;45.78;;;26.40;;
75285;SDS011;63879;46.064;14.532;2022-10-16T09:49:56;45.00;;;26.50;;
75285;SDS011;63879;46.064;14.532;2022-10-16T09:52:24;46.92;;;25.40;;
75285;SDS011;63879;46.064;14.532;2022-10-16T09:54:54;45.42;;;25.98;;
75285;SDS011;63879;46.064;14.532;2022-10-16T09:57:24;40.80;;;24.67;;
75285;SDS011;63879;46.064;14.532;2022-10-16T09:59:54;43.75;;;24.58;;
75285;SDS011;63879;46.064;14.532;2022-10-16T10:05:19;41.42;;;25.00;;
75285;SDS011;63879;46.064;14.532;2022-10-16T10:08:02;41.30;;;25.50;;
75285;SDS011;63879;46.064;14.532;2022-10-16T10:10:32;38.25;;;23.60;;
75285;SDS011;63879;46.064;14.532;2022-10-16T10:12:58;41.00;;;25.48;;
75285;SDS011;63879;46.064;14.532;2022-10-16T10:15:24;37.78;;;24.67;;
75285;SDS011;63879;46.064;14.532;2022-10-16T10:17:55;39.13;;;23.73;;
75285;SDS011;63879;46.064;14.532;2022-10-16T10:20:28;36.60;;;22.88;;
75285;SDS011;63879;46.064;14.532;2022-10-16T10:22:59;40.78;;;22.92;;
75285;SDS011;63879;46.064;14.532;2022-10-16T10:31:38;35.55;;;22.10;;
75285;SDS011;63879;46.064;14.532;2022-10-16T10:36:41;38.15;;;22.67;;
75285;SDS011;63879;46.064;14.532;2022-10-16T10:44:39;33.53;;;21.38;;
75285;SDS011;63879;46.064;14.532;2022-10-16T10:47:32;35.90;;;22.02;;
75285;SDS011;63879;46.064;14.532;2022-10-16T10:50:18;31.77;;;21.02;;
75285;SDS011;63879;46.064;14.532;2022-10-16T10:52:58;33.35;;;21.75;;
75285;SDS011;63879;46.064;14.532;2022-10-16T11:00:50;33.72;;;20.83;;
75285;SDS011;63879;46.064;14.532;2022-10-16T11:06:28;31.95;;;21.77;;
75285;SDS011;63879;46.064;14.532;2022-10-16T11:14:40;32.17;;;20.17;;
75285;SDS011;63879;46.064;14.532;2022-10-16T11:17:10;32.35;;;21.83;;
75285;SDS011;63879;46.064;14.532;2022-10-16T11:22:34;33.63;;;22.85;;
75285;SDS011;63879;46.064;14.532;2022-10-16T11:25:05;36.83;;;24.35;;
75285;SDS011;63879;46.064;14.532;2022-10-16T11:27:39;33.50;;;22.42;;
75285;SDS011;63879;46.064;14.532;2022-10-16T11:30:27;34.72;;;23.90;;
75285;SDS011;63879;46.064;14.532;2022-10-16T11:38:35;33.67;;;22.63;;
75285;SDS011;63879;46.064;14.532;2022-10-16T11:41:36;34.28;;;23.13;;
75285;SDS011;63879;46.064;14.532;2022-10-16T11:44:33;34.80;;;23.20;;
75285;SDS011;63879;46.064;14.532;2022-10-16T11:47:11;36.22;;;24.35;;
75285;SDS011;63879;46.064;14.532;2022-10-16T11:49:38;37.70;;;25.23;;
75285;SDS011;63879;46.064;14.532;2022-10-16T11:52:12;35.70;;;23.85;;
75285;SDS011;63879;46.064;14.532;2022-10-16T11:54:45;36.88;;;24.60;;
75285;SDS011;63879;46.064;14.532;2022-10-16T11:57:24;36.72;;;23.98;;
75285;SDS011;63879;46.064;14.532;2022-10-16T11:59:55;33.65;;;23.90;;
75285;SDS011;63879;46.064;14.532;2022-10-16T12:04:57;40.22;;;24.85;;
75285;SDS011;63879;46.064;14.532;2022-10-16T12:07:36;38.20;;;24.05;;
75285;SDS011;63879;46.064;14.532;2022-10-16T12:10:11;38.47;;;24.88;;
75285;SDS011;63879;46.064;14.532;2022-10-16T12:12:45;34.75;;;24.38;;
75285;SDS011;63879;46.064;14.532;2022-10-16T12:15:22;36.70;;;26.65;;
75285;SDS011;63879;46.064;14.532;2022-10-16T12:17:51;41.28;;;25.75;;
75285;SDS011;63879;46.064;14.532;2022-10-16T12:22:57;35.92;;;24.25;;
75285;SDS011;63879;46.064;14.532;2022-10-16T12:25:26;41.10;;;28.63;;
75285;SDS011;63879;46.064;14.532;2022-10-16T12:27:54;38.00;;;25.65;;
75285;SDS011;63879;46.064;14.532;2022-10-16T12:30:31;36.88;;;25.27;;
75285;SDS011;63879;46.064;14.532;2022-10-16T12:32:59;36.65;;;24.75;;
75285;SDS011;63879;46.064;14.532;2022-10-16T12:35:32;35.88;;;26.20;;
75285;SDS011;63879;46.064;14.532;2022-10-16T12:40:55;40.20;;;25.88;;
75285;SDS011;63879;46.064;14.532;2022-10-16T12:43:45;34.17;;;24.33;;
75285;SDS011;63879;46.064;14.532;2022-10-16T12:48:40;35.17;;;24.88;;
75285;SDS011;63879;46.064;14.532;2022-10-16T12:51:40;36.42;;;24.35;;
75285;SDS011;63879;46.064;14.532;2022-10-16T13:10:53;34.10;;;26.40;;
75285;SDS011;63879;46.064;14.532;2022-10-16T13:13:10;35.47;;;22.77;;
75285;SDS011;63879;46.064;14.532;2022-10-16T13:16:00;35.10;;;24.50;;
75285;SDS011;63879;46.064;14.532;2022-10-16T13:21:49;33.90;;;24.77;;
75285;SDS011;63879;46.064;14.532;2022-10-16T13:24:25;36.90;;;26.63;;
75285;SDS011;63879;46.064;14.532;2022-10-16T13:26:57;37.78;;;25.88;;
75285;SDS011;63879;46.064;14.532;2022-10-16T13:29:28;39.58;;;25.55;;
75285;SDS011;63879;46.064;14.532;2022-10-16T13:31:55;35.95;;;25.42;;
75285;SDS011;63879;46.064;14.532;2022-10-16T13:34:21;36.27;;;25.10;;
75285;SDS011;63879;46.064;14.532;2022-10-16T13:36:48;35.17;;;23.88;;
75285;SDS011;63879;46.064;14.532;2022-10-16T13:39:27;35.70;;;25.27;;
75285;SDS011;63879;46.064;14.532;2022-10-16T13:42:00;37.40;;;24.55;;
75285;SDS011;63879;46.064;14.532;2022-10-16T13:47:16;33.47;;;22.52;;
75285;SDS011;63879;46.064;14.532;2022-10-16T13:49:42;34.35;;;22.65;;
75285;SDS011;63879;46.064;14.532;2022-10-16T13:52:18;35.63;;;22.90;;
75285;SDS011;63879;46.064;14.532;2022-10-16T13:54:44;33.85;;;22.77;;
75285;SDS011;63879;46.064;14.532;2022-10-16T13:57:16;34.90;;;22.75;;
75285;SDS011;63879;46.064;14.532;2022-10-16T13:59:42;38.80;;;24.17;;
75285;SDS011;63879;46.064;14.532;2022-10-16T14:02:15;36.03;;;22.92;;
75285;SDS011;63879;46.064;14.532;2022-10-16T14:05:08;37.45;;;22.98;;
75285;SDS011;63879;46.064;14.532;2022-10-16T14:07:35;34.05;;;22.13;;
75285;SDS011;63879;46.064;14.532;2022-10-16T14:10:02;36.03;;;23.08;;
75285;SDS011;63879;46.064;14.532;2022-10-16T14:12:29;35.13;;;21.70;;
75285;SDS011;63879;46.064;14.532;2022-10-16T14:14:55;34.15;;;21.00;;
75285;SDS011;63879;46.064;14.532;2022-10-16T14:19:52;34.13;;;22.90;;
75285;SDS011;63879;46.064;14.532;2022-10-16T14:24:54;35.85;;;21.40;;
75285;SDS011;63879;46.064;14.532;2022-10-16T14:27:23;34.35;;;21.73;;
75285;SDS011;63879;46.064;14.532;2022-10-16T14:30:01;35.03;;;23.85;;
75285;SDS011;63879;46.064;14.532;2022-10-16T14:32:57;32.25;;;20.65;;
75285;SDS011;63879;46.064;14.532;2022-10-16T14:35:28;32.97;;;20.02;;
75285;SDS011;63879;46.064;14.532;2022-10-16T14:38:02;32.28;;;20.25;;
75285;SDS011;63879;46.064;14.532;2022-10-16T14:40:32;32.95;;;20.23;;
75285;SDS011;63879;46.064;14.532;2022-10-16T14:43:00;29.63;;;18.80;;
75285;SDS011;63879;46.064;14.532;2022-10-16T14:45:30;32.13;;;20.58;;
75285;SDS011;63879;46.064;14.532;2022-10-16T14:48:03;30.02;;;20.00;;
75285;SDS011;63879;46.064;14.532;2022-10-16T14:50:31;32.85;;;20.73;;
75285;SDS011;63879;46.064;14.532;2022-10-16T14:52:56;30.83;;;20.38;;
75285;SDS011;63879;46.064;14.532;2022-10-16T14:55:22;29.88;;;19.00;;
75285;SDS011;63879;46.064;14.532;2022-10-16T14:57:48;30.92;;;20.15;;
75285;SDS011;63879;46.064;14.532;2022-10-16T15:00:16;29.80;;;19.17;;
75285;SDS011;63879;46.064;14.532;2022-10-16T15:02:44;29.52;;;19.55;;
75285;SDS011;63879;46.064;14.532;2022-10-16T15:07:39;32.50;;;19.35;;
75285;SDS011;63879;46.064;14.532;2022-10-16T15:10:10;30.02;;;19.33;;
75285;SDS011;63879;46.064;14.532;2022-10-16T15:12:36;31.55;;;20.00;;
75285;SDS011;63879;46.064;14.532;2022-10-16T15:15:08;30.80;;;19.85;;
75285;SDS011;63879;46.064;14.532;2022-10-16T15:17:47;29.80;;;19.48;;
75285;SDS011;63879;46.064;14.532;2022-10-16T15:20:13;30.65;;;20.27;;
75285;SDS011;63879;46.064;14.532;2022-10-16T15:22:39;31.63;;;20.83;;
75285;SDS011;63879;46.064;14.532;2022-10-16T15:27:52;30.63;;;19.08;;
75285;SDS011;63879;46.064;14.532;2022-10-16T15:30:17;28.73;;;19.53;;
75285;SDS011;63879;46.064;14.532;2022-10-16T15:32:42;31.87;;;19.33;;
75285;SDS011;63879;46.064;14.532;2022-10-16T15:35:08;29.10;;;19.03;;
75285;SDS011;63879;46.064;14.532;2022-10-16T15:37:34;30.25;;;20.42;;
75285;SDS011;63879;46.064;14.532;2022-10-16T15:39:59;33.03;;;21.07;;
75285;SDS011;63879;46.064;14.532;2022-10-16T15:42:25;34.80;;;21.67;;
75285;SDS011;63879;46.064;14.532;2022-10-16T15:44:50;38.50;;;22.63;;
75285;SDS011;63879;46.064;14.532;2022-10-16T15:47:15;33.33;;;20.10;;
75285;SDS011;63879;46.064;14.532;2022-10-16T15:49:44;35.35;;;21.23;;
75285;SDS011;63879;46.064;14.532;2022-10-16T15:52:11;32.95;;;19.83;;
75285;SDS011;63879;46.064;14.532;2022-10-16T15:54:36;35.72;;;22.02;;
75285;SDS011;63879;46.064;14.532;2022-10-16T15:57:02;35.40;;;22.02;;
75285;SDS011;63879;46.064;14.532;2022-10-16T15:59:27;33.85;;;22.90;;
75285;SDS011;63879;46.064;14.532;2022-10-16T16:01:52;38.05;;;22.58;;
75285;SDS011;63879;46.064;14.532;2022-10-16T16:04:18;36.80;;;24.10;;
75285;SDS011;63879;46.064;14.532;2022-10-16T16:06:43;34.38;;;21.48;;
75285;SDS011;63879;46.064;14.532;2022-10-16T16:09:12;36.28;;;23.27;;
75285;SDS011;63879;46.064;14.532;2022-10-16T16:11:38;39.90;;;23.98;;
75285;SDS011;63879;46.064;14.532;2022-10-16T16:14:09;36.40;;;23.70;;
75285;SDS011;63879;46.064;14.532;2022-10-16T16:16:38;36.13;;;23.83;;
75285;SDS011;63879;46.064;14.532;2022-10-16T16:19:04;39.92;;;22.95;;
75285;SDS011;63879;46.064;14.532;2022-10-16T16:21:33;37.80;;;23.38;;
75285;SDS011;63879;46.064;14.532;2022-10-16T16:23:59;41.17;;;24.55;;
75285;SDS011;63879;46.064;14.532;2022-10-16T16:26:25;40.15;;;24.67;;
75285;SDS011;63879;46.064;14.532;2022-10-16T16:28:52;41.08;;;25.13;;
75285;SDS011;63879;46.064;14.532;2022-10-16T16:31:25;42.03;;;25.42;;
75285;SDS011;63879;46.064;14.532;2022-10-16T16:33:52;41.97;;;26.38;;
75285;SDS011;63879;46.064;14.532;2022-10-16T16:36:18;39.97;;;24.80;;
75285;SDS011;63879;46.064;14.532;2022-10-16T16:38:44;40.33;;;26.50;;
75285;SDS011;63879;46.064;14.532;2022-10-16T16:41:11;41.78;;;25.27;;
75285;SDS011;63879;46.064;14.532;2022-10-16T16:43:44;43.55;;;26.40;;
75285;SDS011;63879;46.064;14.532;2022-10-16T16:46:09;41.60;;;26.40;;
75285;SDS011;63879;46.064;14.532;2022-10-16T16:48:35;42.13;;;27.85;;
75285;SDS011;63879;46.064;14.532;2022-10-16T16:51:05;42.50;;;25.05;;
75285;SDS011;63879;46.064;14.532;2022-10-16T16:53:33;41.05;;;26.10;;
75285;SDS011;63879;46.064;14.532;2022-10-16T16:56:03;39.55;;;23.83;;
75285;SDS011;63879;46.064;14.532;2022-10-16T16:58:29;44.05;;;26.00;;
75285;SDS011;63879;46.064;14.532;2022-10-16T17:00:55;43.00;;;25.20;;
75285;SDS011;63879;46.064;14.532;2022-10-16T17:03:21;45.65;;;25.80;;
75285;SDS011;63879;46.064;14.532;2022-10-16T17:05:56;42.90;;;25.67;;
75285;SDS011;63879;46.064;14.532;2022-10-16T17:10:51;41.67;;;24.27;;
75285;SDS011;63879;46.064;14.532;2022-10-16T17:13:20;47.80;;;30.95;;
75285;SDS011;63879;46.064;14.532;2022-10-16T17:15:49;46.42;;;26.98;;
75285;SDS011;63879;46.064;14.532;2022-10-16T17:18:15;39.33;;;24.27;;
75285;SDS011;63879;46.064;14.532;2022-10-16T17:20:41;38.15;;;24.70;;
75285;SDS011;63879;46.064;14.532;2022-10-16T17:23:10;41.83;;;26.95;;
75285;SDS011;63879;46.064;14.532;2022-10-16T17:25:38;43.25;;;26.15;;
75285;SDS011;63879;46.064;14.532;2022-10-16T17:28:05;46.08;;;27.55;;
75285;SDS011;63879;46.064;14.532;2022-10-16T17:30:34;44.92;;;26.35;;
75285;SDS011;63879;46.064;14.532;2022-10-16T17:33:00;39.70;;;25.27;;
75285;SDS011;63879;46.064;14.532;2022-10-16T17:35:26;47.08;;;27.20;;
75285;SDS011;63879;46.064;14.532;2022-10-16T17:37:52;46.85;;;30.13;;
75285;SDS011;63879;46.064;14.532;2022-10-16T17:40:18;40.13;;;25.10;;
75285;SDS011;63879;46.064;14.532;2022-10-16T17:42:44;42.20;;;26.00;;
75285;SDS011;63879;46.064;14.532;2022-10-16T17:45:10;41.30;;;25.45;;
75285;SDS011;63879;46.064;14.532;2022-10-16T17:47:35;47.63;;;28.65;;
75285;SDS011;63879;46.064;14.532;2022-10-16T17:50:02;43.15;;;26.17;;
75285;SDS011;63879;46.064;14.532;2022-10-16T17:52:28;43.40;;;26.92;;
75285;SDS011;63879;46.064;14.532;2022-10-16T17:54:53;49.35;;;29.85;;
75285;SDS011;63879;46.064;14.532;2022-10-16T17:57:20;51.78;;;31.15;;
75285;SDS011;63879;46.064;14.532;2022-10-16T17:59:46;52.47;;;31.35;;
75285;SDS011;63879;46.064;14.532;2022-10-16T18:02:12;47.70;;;28.42;;
75285;SDS011;63879;46.064;14.532;2022-10-16T18:04:38;50.28;;;29.73;;
75285;SDS011;63879;46.064;14.532;2022-10-16T18:07:04;48.58;;;29.27;;
75285;SDS011;63879;46.064;14.532;2022-10-16T18:09:29;51.97;;;29.13;;
75285;SDS011;63879;46.064;14.532;2022-10-16T18:11:55;44.17;;;26.73;;
75285;SDS011;63879;46.064;14.532;2022-10-16T18:14:24;45.65;;;26.98;;
75285;SDS011;63879;46.064;14.532;2022-10-16T18:16:53;54.33;;;29.83;;
75285;SDS011;63879;46.064;14.532;2022-10-16T18:19:19;48.45;;;29.10;;
75285;SDS011;63879;46.064;14.532;2022-10-16T18:21:45;51.33;;;29.33;;
75285;SDS011;63879;46.064;14.532;2022-10-16T18:24:13;46.53;;;27.13;;
75285;SDS011;63879;46.064;14.532;2022-10-16T18:26:39;59.17;;;33.38;;
75285;SDS011;63879;46.064;14.532;2022-10-16T18:29:09;42.53;;;26.45;;
75285;SDS011;63879;46.064;14.532;2022-10-16T18:31:35;50.45;;;29.35;;
75285;SDS011;63879;46.064;14.532;2022-10-16T18:34:01;53.55;;;29.15;;
75285;SDS011;63879;46.064;14.532;2022-10-16T18:36:27;44.90;;;29.27;;
75285;SDS011;63879;46.064;14.532;2022-10-16T18:38:54;47.20;;;29.48;;
75285;SDS011;63879;46.064;14.532;2022-10-16T18:41:20;46.63;;;26.75;;
75285;SDS011;63879;46.064;14.532;2022-10-16T18:43:46;49.45;;;31.83;;
75285;SDS011;63879;46.064;14.532;2022-10-16T18:46:13;46.55;;;29.27;;
75285;SDS011;63879;46.064;14.532;2022-10-16T18:48:44;43.17;;;26.23;;
75285;SDS011;63879;46.064;14.532;2022-10-16T18:51:30;54.70;;;31.98;;
75285;SDS011;63879;46.064;14.532;2022-10-16T18:54:04;57.85;;;33.22;;
75285;SDS011;63879;46.064;14.532;2022-10-16T18:56:32;58.65;;;32.38;;
75285;SDS011;63879;46.064;14.532;2022-10-16T18:58:59;56.83;;;31.95;;
75285;SDS011;63879;46.064;14.532;2022-10-16T19:01:25;61.05;;;32.97;;
75285;SDS011;63879;46.064;14.532;2022-10-16T19:03:59;45.58;;;26.05;;
75285;SDS011;63879;46.064;14.532;2022-10-16T19:06:26;47.78;;;27.05;;
75285;SDS011;63879;46.064;14.532;2022-10-16T19:08:52;54.45;;;30.52;;
75285;SDS011;63879;46.064;14.532;2022-10-16T19:11:19;50.78;;;29.85;;
75285;SDS011;63879;46.064;14.532;2022-10-16T19:16:13;44.40;;;26.08;;
75285;SDS011;63879;46.064;14.532;2022-10-16T19:18:42;52.08;;;28.48;;
75285;SDS011;63879;46.064;14.532;2022-10-16T19:21:08;51.90;;;31.17;;
75285;SDS011;63879;46.064;14.532;2022-10-16T19:23:35;52.28;;;30.85;;
75285;SDS011;63879;46.064;14.532;2022-10-16T19:26:05;52.97;;;28.38;;
75285;SDS011;63879;46.064;14.532;2022-10-16T19:28:37;48.47;;;28.35;;
75285;SDS011;63879;46.064;14.532;2022-10-16T19:31:03;58.70;;;32.45;;
75285;SDS011;63879;46.064;14.532;2022-10-16T19:33:30;47.63;;;27.33;;
75285;SDS011;63879;46.064;14.532;2022-10-16T19:36:09;46.42;;;27.73;;
75285;SDS011;63879;46.064;14.532;2022-10-16T19:38:36;40.70;;;24.83;;
75285;SDS011;63879;46.064;14.532;2022-10-16T19:41:06;48.28;;;28.35;;
75285;SDS011;63879;46.064;14.532;2022-10-16T19:43:31;43.50;;;24.85;;
75285;SDS011;63879;46.064;14.532;2022-10-16T19:45:56;46.58;;;28.25;;
75285;SDS011;63879;46.064;14.532;2022-10-16T19:48:27;49.72;;;28.80;;
75285;SDS011;63879;46.064;14.532;2022-10-16T19:50:52;46.47;;;25.10;;
75285;SDS011;63879;46.064;14.532;2022-10-16T19:53:17;43.72;;;25.90;;
75285;SDS011;63879;46.064;14.532;2022-10-16T19:55:43;41.88;;;24.92;;
75285;SDS011;63879;46.064;14.532;2022-10-16T19:58:08;47.20;;;27.90;;
75285;SDS011;63879;46.064;14.532;2022-10-16T20:00:34;46.92;;;29.00;;
75285;SDS011;63879;46.064;14.532;2022-10-16T20:02:59;48.83;;;27.88;;
75285;SDS011;63879;46.064;14.532;2022-10-16T20:05:26;45.17;;;26.17;;
75285;SDS011;63879;46.064;14.532;2022-10-16T20:07:52;47.53;;;29.27;;
75285;SDS011;63879;46.064;14.532;2022-10-16T20:10:17;47.78;;;28.67;;
75285;SDS011;63879;46.064;14.532;2022-10-16T20:12:42;45.47;;;26.63;;
75285;SDS011;63879;46.064;14.532;2022-10-16T20:15:08;45.77;;;26.17;;
75285;SDS011;63879;46.064;14.532;2022-10-16T20:17:33;44.28;;;26.45;;
75285;SDS011;63879;46.064;14.532;2022-10-16T20:19:59;44.47;;;24.93;;
75285;SDS011;63879;46.064;14.532;2022-10-16T20:22:25;43.25;;;25.80;;
75285;SDS011;63879;46.064;14.532;2022-10-16T20:24:51;55.90;;;30.70;;
75285;SDS011;63879;46.064;14.532;2022-10-16T20:27:16;43.63;;;24.83;;
75285;SDS011;63879;46.064;14.532;2022-10-16T20:29:42;45.57;;;26.57;;
75285;SDS011;63879;46.064;14.532;2022-10-16T20:32:07;49.53;;;28.17;;
75285;SDS011;63879;46.064;14.532;2022-10-16T20:34:32;45.42;;;27.88;;
75285;SDS011;63879;46.064;14.532;2022-10-16T20:36:58;44.30;;;26.43;;
75285;SDS011;63879;46.064;14.532;2022-10-16T20:39:26;43.40;;;25.53;;
75285;SDS011;63879;46.064;14.532;2022-10-16T20:41:51;46.15;;;28.60;;
75285;SDS011;63879;46.064;14.532;2022-10-16T20:44:16;39.07;;;24.73;;
75285;SDS011;63879;46.064;14.532;2022-10-16T20:46:42;46.42;;;29.50;;
75285;SDS011;63879;46.064;14.532;2022-10-16T20:49:07;51.70;;;30.30;;
75285;SDS011;63879;46.064;14.532;2022-10-16T20:51:33;47.58;;;30.33;;
75285;SDS011;63879;46.064;14.532;2022-10-16T20:54:02;42.67;;;26.42;;
75285;SDS011;63879;46.064;14.532;2022-10-16T20:56:29;49.58;;;29.10;;
75285;SDS011;63879;46.064;14.532;2022-10-16T20:58:56;52.08;;;30.33;;
75285;SDS011;63879;46.064;14.532;2022-10-16T21:01:25;48.97;;;27.42;;
75285;SDS011;63879;46.064;14.532;2022-10-16T21:03:58;44.97;;;26.92;;
75285;SDS011;63879;46.064;14.532;2022-10-16T21:08:51;40.53;;;23.83;;
75285;SDS011;63879;46.064;14.532;2022-10-16T21:11:21;40.80;;;25.35;;
75285;SDS011;63879;46.064;14.532;2022-10-16T21:13:50;44.38;;;26.35;;
75285;SDS011;63879;46.064;14.532;2022-10-16T21:16:16;43.15;;;25.92;;
75285;SDS011;63879;46.064;14.532;2022-10-16T21:18:41;44.90;;;27.63;;
75285;SDS011;63879;46.064;14.532;2022-10-16T21:21:08;45.63;;;26.98;;
75285;SDS011;63879;46.064;14.532;2022-10-16T21:23:34;43.42;;;25.65;;
75285;SDS011;63879;46.064;14.532;2022-10-16T21:26:00;49.88;;;26.08;;
75285;SDS011;63879;46.064;14.532;2022-10-16T21:28:26;48.87;;;25.60;;
75285;SDS011;63879;46.064;14.532;2022-10-16T21:30:53;43.70;;;24.70;;
75285;SDS011;63879;46.064;14.532;2022-10-16T21:33:18;46.22;;;27.00;;
75285;SDS011;63879;46.064;14.532;2022-10-16T21:35:44;44.13;;;26.40;;
75285;SDS011;63879;46.064;14.532;2022-10-16T21:38:09;45.63;;;25.37;;
75285;SDS011;63879;46.064;14.532;2022-10-16T21:40:34;47.70;;;26.33;;
75285;SDS011;63879;46.064;14.532;2022-10-16T21:43:00;45.13;;;26.48;;
75285;SDS011;63879;46.064;14.532;2022-10-16T21:45:25;46.70;;;25.08;;
75285;SDS011;63879;46.064;14.532;2022-10-16T21:47:50;43.72;;;23.92;;
75285;SDS011;63879;46.064;14.532;2022-10-16T21:50:16;42.70;;;25.43;;
75285;SDS011;63879;46.064;14.532;2022-10-16T21:52:41;49.55;;;27.70;;
75285;SDS011;63879;46.064;14.532;2022-10-16T21:55:07;45.85;;;27.63;;
75285;SDS011;63879;46.064;14.532;2022-10-16T21:57:33;42.13;;;24.92;;
75285;SDS011;63879;46.064;14.532;2022-10-16T22:00:00;50.50;;;27.35;;
